Time;durP1;ratioP1;P1;durP2;ratioP2;P2;SDS_P1;SDS_P2;PMS_P1;PMS_P2;Temp;Humidity;BMP_temperature;BMP_pressure;BME280_temperature;BME280_humidity;BME280_pressure;Samples;Min_cycle;Max_cycle;Signal;HPM_P1;HPM_P2
2021/09/18 00:00:17;;;;;;;14.50;10.63;;;13.30;99.90;;;;;;5039733;28;20097;-77
2021/09/18 00:02:44;;;;;;;14.95;10.88;;;13.40;99.90;;;;;;5041387;28;20171;-77
2021/09/18 00:05:11;;;;;;;16.02;10.77;;;13.30;99.90;;;;;;5040720;28;20123;-76
2021/09/18 00:07:38;;;;;;;23.20;10.07;;;13.30;99.90;;;;;;5043188;28;21130;-76
2021/09/18 00:10:06;;;;;;;14.13;9.85;;;13.30;99.90;;;;;;5042862;28;20055;-76
2021/09/18 00:12:33;;;;;;;14.27;9.55;;;13.30;99.90;;;;;;5039065;28;20080;-76
2021/09/18 00:15:01;;;;;;;16.27;10.63;;;13.40;99.90;;;;;;5042942;28;20048;-76
2021/09/18 00:17:29;;;;;;;16.85;10.85;;;13.30;99.90;;;;;;5043082;28;20083;-76
2021/09/18 00:19:58;;;;;;;15.48;10.10;;;13.30;99.90;;;;;;5042971;28;20106;-76
2021/09/18 00:22:25;;;;;;;16.45;10.73;;;13.30;99.90;;;;;;5042995;28;20067;-76
2021/09/18 00:24:56;;;;;;;16.20;10.52;;;13.20;99.90;;;;;;5041770;28;20474;-76
2021/09/18 00:27:23;;;;;;;17.33;11.27;;;13.30;99.90;;;;;;5048818;28;20056;-76
2021/09/18 00:29:50;;;;;;;19.95;11.35;;;13.30;99.90;;;;;;5047662;28;20141;-76
2021/09/18 00:32:17;;;;;;;16.27;10.50;;;13.30;99.90;;;;;;5046377;28;20059;-76
2021/09/18 00:34:45;;;;;;;21.20;10.98;;;13.30;99.90;;;;;;5047467;28;20098;-77
2021/09/18 00:37:12;;;;;;;17.75;11.52;;;13.40;99.90;;;;;;5047673;28;20118;-75
2021/09/18 00:39:39;;;;;;;14.63;9.93;;;13.40;99.90;;;;;;5048167;28;20473;-76
2021/09/18 00:42:06;;;;;;;19.20;10.43;;;13.40;99.90;;;;;;5048548;28;20101;-76
2021/09/18 00:44:33;;;;;;;15.85;11.23;;;13.30;99.90;;;;;;5049331;28;20132;-78
2021/09/18 00:47:00;;;;;;;17.67;11.30;;;13.30;99.90;;;;;;5048576;28;20053;-76
2021/09/18 00:49:28;;;;;;;20.70;10.80;;;13.40;99.90;;;;;;5048100;28;20080;-75
2021/09/18 00:51:56;;;;;;;15.88;10.98;;;13.40;99.90;;;;;;5050224;28;21122;-76
2021/09/18 00:54:24;;;;;;;16.17;10.95;;;13.30;99.90;;;;;;5046784;28;20110;-75
2021/09/18 00:56:54;;;;;;;17.17;11.35;;;13.40;99.90;;;;;;5046146;28;20055;-76
2021/09/18 00:59:21;;;;;;;16.92;10.95;;;13.40;99.90;;;;;;5041912;28;20052;-77
2021/09/18 01:01:48;;;;;;;17.80;10.32;;;13.30;99.90;;;;;;5041835;28;20087;-77
2021/09/18 01:04:16;;;;;;;14.38;10.10;;;13.30;99.90;;;;;;5039205;28;20080;-77
2021/09/18 01:06:43;;;;;;;16.27;11.07;;;13.30;99.90;;;;;;5039599;28;20456;-77
2021/09/18 01:09:12;;;;;;;17.55;11.60;;;13.40;99.90;;;;;;5037402;28;20558;-77
2021/09/18 01:11:41;;;;;;;17.00;11.90;;;13.40;99.90;;;;;;5040360;28;20084;-77
2021/09/18 01:14:09;;;;;;;17.52;12.55;;;13.30;99.90;;;;;;5042680;28;20053;-77
2021/09/18 01:16:37;;;;;;;21.10;13.02;;;13.20;99.90;;;;;;5040680;28;20449;-78
2021/09/18 01:19:04;;;;;;;19.80;12.02;;;13.10;99.90;;;;;;5041210;28;20077;-80
2021/09/18 01:21:31;;;;;;;20.17;12.07;;;13.20;99.90;;;;;;5047356;28;20048;-77
2021/09/18 01:24:00;;;;;;;22.15;12.30;;;13.20;99.90;;;;;;5047206;28;20044;-76
2021/09/18 01:26:32;;;;;;;18.73;12.50;;;13.20;99.90;;;;;;5048615;28;20048;-77
2021/09/18 01:28:59;;;;;;;22.35;13.70;;;13.10;99.90;;;;;;5048518;28;20459;-77
2021/09/18 01:31:27;;;;;;;18.60;12.75;;;13.10;99.90;;;;;;5045782;28;20045;-77
2021/09/18 01:33:55;;;;;;;17.90;11.65;;;13.00;99.90;;;;;;5049648;28;20754;-77
2021/09/18 01:36:23;;;;;;;17.48;11.93;;;13.00;99.90;;;;;;5041411;28;20504;-77
2021/09/18 01:38:50;;;;;;;23.80;12.57;;;13.00;99.90;;;;;;5045831;28;20132;-76
2021/09/18 01:41:18;;;;;;;20.58;12.55;;;13.10;99.90;;;;;;5045746;28;20558;-77
2021/09/18 01:43:48;;;;;;;17.52;12.10;;;13.00;99.90;;;;;;5042634;28;20137;-77
2021/09/18 01:46:15;;;;;;;17.40;11.98;;;13.00;99.90;;;;;;5047359;28;20080;-76
2021/09/18 01:48:42;;;;;;;18.70;11.98;;;13.00;99.90;;;;;;5042744;28;20052;-77
2021/09/18 01:51:13;;;;;;;17.48;12.30;;;12.90;99.90;;;;;;5041038;28;20109;-76
2021/09/18 01:53:40;;;;;;;17.00;12.10;;;12.90;99.90;;;;;;5040444;28;20071;-77
2021/09/18 01:56:07;;;;;;;18.35;10.73;;;12.90;99.90;;;;;;5038020;28;20110;-76
2021/09/18 01:58:36;;;;;;;17.48;10.98;;;12.90;99.90;;;;;;5042476;28;20456;-76
2021/09/18 02:01:03;;;;;;;17.77;10.73;;;12.80;99.90;;;;;;5041984;28;20114;-77
2021/09/18 02:03:31;;;;;;;17.02;12.18;;;12.80;99.90;;;;;;5041355;28;20558;-77
2021/09/18 02:05:58;;;;;;;18.45;13.15;;;12.70;99.90;;;;;;5038433;28;20049;-77
2021/09/18 02:08:26;;;;;;;22.20;12.82;;;12.70;99.90;;;;;;5042480;28;20582;-78
2021/09/18 02:10:54;;;;;;;20.33;13.38;;;12.70;99.90;;;;;;5044005;28;20040;-76
2021/09/18 02:13:22;;;;;;;20.75;13.23;;;12.70;99.90;;;;;;5048771;28;20163;-76
2021/09/18 02:15:50;;;;;;;19.75;13.00;;;12.70;99.90;;;;;;5046257;28;20044;-76
2021/09/18 02:18:18;;;;;;;23.10;12.88;;;12.70;99.90;;;;;;5046291;28;20060;-76
2021/09/18 02:20:45;;;;;;;17.65;12.18;;;12.70;99.90;;;;;;5044045;28;20052;-77
2021/09/18 02:23:14;;;;;;;19.80;12.50;;;12.70;99.90;;;;;;5047516;28;20041;-80
2021/09/18 02:25:42;;;;;;;16.92;12.25;;;12.70;99.90;;;;;;5046883;28;20084;-77
2021/09/18 02:28:09;;;;;;;17.90;12.70;;;12.60;99.90;;;;;;5047980;28;20048;-78
2021/09/18 02:30:37;;;;;;;19.30;12.57;;;12.60;99.90;;;;;;5048339;28;20528;-79
2021/09/18 02:33:06;;;;;;;21.30;13.43;;;12.60;99.90;;;;;;5045710;28;20129;-77
2021/09/18 02:35:34;;;;;;;17.33;12.68;;;12.50;99.90;;;;;;5046691;28;20131;-77
2021/09/18 02:38:03;;;;;;;20.17;12.63;;;12.60;99.90;;;;;;5046107;28;20044;-79
2021/09/18 02:40:30;;;;;;;23.10;14.85;;;12.50;99.90;;;;;;5047128;28;20052;-78
2021/09/18 02:42:59;;;;;;;23.38;14.82;;;12.60;99.90;;;;;;5045756;28;20080;-79
2021/09/18 02:45:27;;;;;;;20.70;13.90;;;12.50;99.90;;;;;;5048509;28;20445;-77
2021/09/18 02:47:54;;;;;;;19.35;13.88;;;12.40;99.90;;;;;;5045685;28;20462;-79
2021/09/18 02:50:24;;;;;;;18.73;12.77;;;12.40;99.90;;;;;;5044744;28;20075;-77
2021/09/18 02:52:50;;;;;;;20.67;13.45;;;12.40;99.90;;;;;;5039608;28;20144;-77
2021/09/18 02:55:18;;;;;;;18.55;13.82;;;12.30;99.90;;;;;;5037939;28;20044;-76
2021/09/18 02:57:45;;;;;;;23.27;14.25;;;12.20;99.90;;;;;;5038514;28;20076;-76
2021/09/18 03:00:14;;;;;;;25.98;15.80;;;12.10;99.90;;;;;;5036572;28;20044;-76
2021/09/18 03:02:41;;;;;;;23.90;15.40;;;12.00;99.90;;;;;;5038370;28;20106;-76
2021/09/18 03:05:10;;;;;;;25.40;14.43;;;12.00;99.90;;;;;;5036224;28;20522;-76
2021/09/18 03:07:39;;;;;;;23.40;14.70;;;12.00;99.90;;;;;;5037628;28;20074;-76
2021/09/18 03:10:07;;;;;;;22.50;14.02;;;12.00;99.90;;;;;;5036320;28;20463;-76
2021/09/18 03:12:34;;;;;;;22.65;13.80;;;12.00;99.90;;;;;;5040115;28;20097;-76
2021/09/18 03:15:01;;;;;;;20.60;13.00;;;12.00;99.90;;;;;;5040341;28;20056;-77
2021/09/18 03:17:32;;;;;;;19.33;13.35;;;11.90;99.90;;;;;;5042686;28;20051;-76
2021/09/18 03:19:59;;;;;;;22.73;13.10;;;11.90;99.90;;;;;;5044406;28;20045;-76
2021/09/18 03:22:26;;;;;;;20.27;12.85;;;11.90;99.90;;;;;;5045217;28;20052;-76
2021/09/18 03:24:54;;;;;;;20.33;13.40;;;11.80;99.90;;;;;;5043467;28;20984;-77
2021/09/18 03:27:21;;;;;;;20.58;12.82;;;11.80;99.90;;;;;;5039170;28;20052;-77
2021/09/18 03:29:48;;;;;;;23.35;13.27;;;11.80;99.90;;;;;;5037504;28;20048;-76
2021/09/18 03:32:15;;;;;;;20.90;13.43;;;11.80;99.90;;;;;;5039986;28;20126;-77
2021/09/18 03:34:42;;;;;;;20.77;13.40;;;11.80;99.90;;;;;;5039198;28;20091;-77
2021/09/18 03:37:09;;;;;;;22.13;15.13;;;11.90;99.90;;;;;;5038771;28;20098;-77
2021/09/18 03:39:36;;;;;;;18.95;13.52;;;11.90;99.90;;;;;;5042762;28;20076;-77
2021/09/18 03:42:05;;;;;;;21.58;14.27;;;11.90;99.90;;;;;;5046999;28;20505;-77
2021/09/18 03:44:32;;;;;;;20.73;13.18;;;11.80;99.90;;;;;;5046884;28;20102;-76
2021/09/18 03:46:59;;;;;;;20.10;13.10;;;11.80;99.90;;;;;;5043867;28;20948;-78
2021/09/18 03:49:26;;;;;;;21.02;13.38;;;11.80;99.90;;;;;;5045738;28;20072;-80
2021/09/18 03:51:53;;;;;;;20.38;13.50;;;11.70;99.90;;;;;;5044882;28;20052;-77
2021/09/18 03:54:20;;;;;;;19.45;13.25;;;11.70;99.90;;;;;;5043885;28;20514;-77
2021/09/18 03:56:47;;;;;;;22.40;13.63;;;11.60;99.90;;;;;;5043280;28;20410;-80
2021/09/18 03:59:15;;;;;;;21.23;13.23;;;11.60;99.90;;;;;;5042835;28;20131;-78
2021/09/18 04:01:42;;;;;;;20.42;14.13;;;11.60;99.90;;;;;;5044210;28;20049;-78
2021/09/18 04:04:09;;;;;;;20.45;13.30;;;11.70;99.90;;;;;;5043321;28;20076;-77
2021/09/18 04:06:36;;;;;;;20.58;13.82;;;11.70;99.90;;;;;;5043241;28;20497;-78
2021/09/18 04:09:03;;;;;;;18.42;13.18;;;11.60;99.90;;;;;;5045281;28;20045;-78
2021/09/18 04:11:30;;;;;;;21.50;13.07;;;11.60;99.90;;;;;;5045676;28;20098;-77
2021/09/18 04:13:57;;;;;;;18.35;12.52;;;11.60;99.90;;;;;;5045875;28;20626;-82
2021/09/18 04:16:26;;;;;;;27.27;14.25;;;11.60;99.90;;;;;;5047127;28;20049;-78
2021/09/18 04:18:53;;;;;;;24.40;14.55;;;11.60;99.90;;;;;;5049144;28;21170;-78
2021/09/18 04:21:20;;;;;;;19.17;12.68;;;11.70;99.90;;;;;;5049407;28;20300;-77
2021/09/18 04:23:47;;;;;;;21.25;13.23;;;11.70;99.90;;;;;;5044982;28;20052;-77
2021/09/18 04:26:14;;;;;;;21.17;14.43;;;11.70;99.90;;;;;;5043686;28;20054;-79
2021/09/18 04:28:42;;;;;;;21.23;14.88;;;11.60;99.90;;;;;;5043770;28;20057;-77
2021/09/18 04:31:09;;;;;;;21.20;13.60;;;11.60;99.90;;;;;;5040979;28;20084;-77
2021/09/18 04:33:37;;;;;;;23.25;13.70;;;11.60;99.90;;;;;;5041355;28;21381;-78
2021/09/18 04:36:04;;;;;;;20.02;13.73;;;11.50;99.90;;;;;;5040460;28;20525;-76
2021/09/18 04:38:31;;;;;;;22.85;15.48;;;11.50;99.90;;;;;;5041335;28;20478;-77
2021/09/18 04:40:59;;;;;;;24.08;14.20;;;11.50;99.90;;;;;;5042113;28;20075;-78
2021/09/18 04:43:26;;;;;;;22.05;13.95;;;11.50;99.90;;;;;;5042430;28;20486;-79
2021/09/18 04:45:53;;;;;;;22.45;14.13;;;11.50;99.90;;;;;;5043808;28;20143;-78
2021/09/18 04:48:20;;;;;;;24.08;14.75;;;11.40;99.90;;;;;;5042163;28;20501;-79
2021/09/18 04:50:49;;;;;;;23.52;15.25;;;11.40;99.90;;;;;;5043056;28;20098;-78
2021/09/18 04:53:16;;;;;;;21.70;13.82;;;11.30;99.90;;;;;;5040684;28;20578;-78
2021/09/18 04:55:43;;;;;;;20.60;13.73;;;11.30;99.90;;;;;;5040484;28;20095;-78
2021/09/18 04:58:10;;;;;;;25.08;14.40;;;11.30;99.90;;;;;;5042221;28;20080;-78
2021/09/18 05:00:37;;;;;;;19.80;13.75;;;11.30;99.90;;;;;;5040922;28;20044;-77
2021/09/18 05:03:04;;;;;;;25.48;14.90;;;11.30;99.90;;;;;;5040515;28;20057;-77
2021/09/18 05:05:31;;;;;;;22.08;14.48;;;11.30;99.90;;;;;;5040477;28;20607;-77
2021/09/18 05:08:00;;;;;;;23.15;14.70;;;11.20;99.90;;;;;;5041384;28;20131;-77
2021/09/18 05:10:27;;;;;;;24.30;15.20;;;11.20;99.90;;;;;;5041402;28;20072;-78
2021/09/18 05:12:54;;;;;;;21.15;14.75;;;11.20;99.90;;;;;;5041387;28;20084;-78
2021/09/18 05:15:21;;;;;;;23.30;14.43;;;11.20;99.90;;;;;;5039873;28;21125;-78
2021/09/18 05:17:48;;;;;;;27.80;15.05;;;11.20;99.90;;;;;;5039038;28;20056;-78
2021/09/18 05:20:15;;;;;;;22.40;13.43;;;11.20;99.90;;;;;;5040386;28;20505;-78
2021/09/18 05:22:42;;;;;;;17.88;12.73;;;11.10;99.90;;;;;;5039687;28;20084;-77
2021/09/18 05:25:11;;;;;;;22.15;13.75;;;11.10;99.90;;;;;;5040085;28;20079;-77
2021/09/18 05:27:38;;;;;;;22.33;14.07;;;11.20;99.90;;;;;;5039071;28;20048;-77
2021/09/18 05:30:06;;;;;;;21.10;13.55;;;11.10;99.90;;;;;;5038932;28;20041;-76
2021/09/18 05:32:34;;;;;;;20.50;13.05;;;11.10;99.90;;;;;;5042797;28;20040;-77
2021/09/18 05:35:01;;;;;;;19.65;13.32;;;11.20;99.90;;;;;;5040842;28;20288;-77
2021/09/18 05:37:28;;;;;;;17.65;12.35;;;11.20;99.90;;;;;;5039762;28;20045;-77
2021/09/18 05:39:55;;;;;;;18.90;12.45;;;11.40;99.90;;;;;;5039104;28;21415;-76
2021/09/18 05:42:24;;;;;;;17.42;11.70;;;11.30;99.90;;;;;;5039697;28;20101;-77
2021/09/18 05:44:51;;;;;;;17.27;12.50;;;11.30;99.90;;;;;;5040599;28;20064;-76
2021/09/18 05:47:17;;;;;;;17.88;11.82;;;11.40;99.90;;;;;;5038872;28;20121;-77
2021/09/18 05:49:47;;;;;;;18.25;12.48;;;11.40;99.90;;;;;;5040876;28;20145;-76
2021/09/18 05:52:14;;;;;;;17.35;12.00;;;11.50;99.90;;;;;;5039872;28;20083;-77
2021/09/18 05:54:41;;;;;;;17.60;12.30;;;11.70;99.90;;;;;;5041212;28;20436;-76
2021/09/18 05:57:08;;;;;;;25.65;13.85;;;11.80;99.90;;;;;;5037961;28;20056;-77
2021/09/18 05:59:36;;;;;;;22.45;14.43;;;11.80;99.90;;;;;;5040617;28;20049;-76
2021/09/18 06:02:04;;;;;;;24.40;15.02;;;11.80;99.90;;;;;;5039061;28;20139;-77
2021/09/18 06:04:31;;;;;;;22.33;14.35;;;11.90;99.90;;;;;;5039624;28;20052;-76
2021/09/18 06:06:58;;;;;;;28.20;17.08;;;12.00;99.90;;;;;;5039018;28;20058;-77
2021/09/18 06:09:25;;;;;;;26.25;16.75;;;12.00;99.90;;;;;;5039600;28;20048;-77
2021/09/18 06:11:52;;;;;;;21.33;15.55;;;12.10;99.90;;;;;;5038946;28;20052;-77
2021/09/18 06:14:21;;;;;;;24.35;16.23;;;12.20;99.90;;;;;;5038374;28;20045;-77
2021/09/18 06:16:50;;;;;;;22.80;15.57;;;12.40;99.90;;;;;;5038512;28;20114;-77
2021/09/18 06:19:18;;;;;;;21.75;14.82;;;12.50;99.90;;;;;;5038042;28;20044;-77
2021/09/18 06:21:46;;;;;;;22.35;14.80;;;12.60;99.90;;;;;;5038917;28;21452;-77
2021/09/18 06:24:13;;;;;;;25.80;14.88;;;12.70;99.90;;;;;;5037986;28;20052;-78
2021/09/18 06:26:41;;;;;;;24.35;15.07;;;12.60;99.90;;;;;;5037352;28;20053;-78
2021/09/18 06:29:08;;;;;;;21.27;14.00;;;12.70;99.90;;;;;;5038455;28;20048;-77
2021/09/18 06:31:36;;;;;;;33.15;18.92;;;12.80;99.90;;;;;;5037530;28;20470;-77
2021/09/18 06:34:04;;;;;;;25.08;16.15;;;12.80;99.90;;;;;;5038277;28;20045;-78
2021/09/18 06:36:31;;;;;;;28.45;16.98;;;12.80;99.90;;;;;;5038485;28;20127;-78
2021/09/18 06:38:58;;;;;;;26.92;15.73;;;12.80;99.90;;;;;;5038136;28;20567;-78
2021/09/18 06:41:26;;;;;;;28.15;16.42;;;12.90;99.90;;;;;;5037708;28;20052;-78
2021/09/18 06:43:53;;;;;;;22.35;14.43;;;12.80;99.90;;;;;;5039662;28;20106;-77
2021/09/18 06:46:20;;;;;;;25.35;16.38;;;12.70;99.90;;;;;;5036812;28;20213;-77
2021/09/18 06:48:47;;;;;;;23.05;15.35;;;12.70;99.90;;;;;;5037748;28;20059;-77
2021/09/18 06:51:15;;;;;;;21.33;14.82;;;13.00;99.90;;;;;;5036413;28;21509;-76
2021/09/18 06:53:42;;;;;;;25.13;15.23;;;13.20;99.90;;;;;;5036571;28;20056;-76
2021/09/18 06:56:09;;;;;;;21.42;14.20;;;13.20;99.90;;;;;;5040121;28;20076;-77
2021/09/18 06:58:36;;;;;;;19.98;13.68;;;13.40;99.90;;;;;;5039526;28;20048;-77
2021/09/18 07:01:03;;;;;;;22.23;13.45;;;13.60;99.90;;;;;;5038041;28;20471;-77
2021/09/18 07:03:30;;;;;;;18.92;12.70;;;13.80;99.90;;;;;;5035531;28;20126;-77
2021/09/18 07:06:02;;;;;;;19.25;12.40;;;13.90;99.90;;;;;;5037916;28;20080;-77
2021/09/18 07:08:36;;;;;;;16.77;12.68;;;13.90;99.90;;;;;;5055122;28;20536;-77
2021/09/18 07:11:03;;;;;;;22.42;13.77;;;13.70;99.90;;;;;;5037214;28;20140;-77
2021/09/18 07:13:30;;;;;;;19.45;12.63;;;13.80;99.90;;;;;;5038498;28;20102;-77
2021/09/18 07:15:57;;;;;;;17.05;12.23;;;14.00;99.90;;;;;;5036624;28;20056;-77
2021/09/18 07:18:24;;;;;;;20.60;13.02;;;14.20;99.90;;;;;;5037030;28;20102;-77
2021/09/18 07:20:51;;;;;;;17.55;12.30;;;14.20;99.90;;;;;;5035402;28;20076;-77
2021/09/18 07:23:19;;;;;;;21.92;13.20;;;14.30;99.90;;;;;;5034657;28;20101;-78
2021/09/18 07:25:48;;;;;;;19.00;13.02;;;14.50;99.90;;;;;;5037238;28;20147;-77
2021/09/18 07:28:15;;;;;;;20.35;13.27;;;14.50;99.90;;;;;;5035488;28;20052;-77
2021/09/18 07:30:42;;;;;;;18.02;12.75;;;14.60;99.90;;;;;;5036120;28;20108;-77
2021/09/18 07:33:09;;;;;;;21.50;14.05;;;14.70;99.90;;;;;;5035775;28;20045;-77
2021/09/18 07:35:37;;;;;;;18.35;13.32;;;14.80;99.90;;;;;;5035731;28;20056;-76
2021/09/18 07:38:04;;;;;;;19.60;13.50;;;15.20;99.90;;;;;;5037840;28;20048;-76
2021/09/18 07:40:32;;;;;;;18.00;13.02;;;15.30;99.90;;;;;;5036650;28;20123;-76
2021/09/18 07:43:01;;;;;;;19.45;12.75;;;15.50;99.90;;;;;;5040065;28;20057;-76
2021/09/18 07:45:28;;;;;;;18.70;12.63;;;15.40;99.90;;;;;;5039721;28;20451;-77
2021/09/18 07:47:55;;;;;;;21.52;14.00;;;15.70;99.90;;;;;;5040967;28;20076;-76
2021/09/18 07:50:22;;;;;;;22.20;14.13;;;15.50;99.90;;;;;;5040587;28;20056;-77
2021/09/18 07:52:50;;;;;;;21.05;13.88;;;16.00;99.90;;;;;;5041996;28;20049;-77
2021/09/18 07:55:17;;;;;;;21.20;14.15;;;15.50;99.90;;;;;;5040095;28;20062;-76
2021/09/18 07:57:44;;;;;;;22.77;13.93;;;15.50;99.90;;;;;;5041960;28;20471;-76
2021/09/18 08:00:13;;;;;;;20.73;14.05;;;15.50;99.90;;;;;;5041961;28;21014;-76
2021/09/18 08:02:40;;;;;;;21.40;14.65;;;15.80;99.90;;;;;;5042031;28;20060;-76
2021/09/18 08:05:08;;;;;;;20.50;14.27;;;16.20;99.90;;;;;;5041306;28;20072;-76
2021/09/18 08:07:38;;;;;;;20.08;13.70;;;16.80;99.90;;;;;;5039895;28;20053;-77
2021/09/18 08:10:07;;;;;;;20.83;14.45;;;16.90;99.90;;;;;;5041369;28;20056;-76
2021/09/18 08:12:35;;;;;;;21.42;15.15;;;17.60;99.90;;;;;;5041412;28;20053;-77
2021/09/18 08:15:01;;;;;;;18.38;13.80;;;17.80;99.90;;;;;;5038806;28;20158;-76
2021/09/18 08:17:30;;;;;;;18.73;13.52;;;18.60;99.90;;;;;;5042314;28;20121;-76
2021/09/18 08:19:57;;;;;;;19.63;13.70;;;20.10;99.90;;;;;;5042553;28;20048;-77
2021/09/18 08:22:24;;;;;;;18.90;13.60;;;20.50;99.90;;;;;;5041145;28;20464;-76
2021/09/18 08:24:54;;;;;;;19.77;13.77;;;20.30;99.90;;;;;;5042224;28;20079;-77
2021/09/18 08:27:21;;;;;;;16.00;12.68;;;20.50;99.90;;;;;;5042192;28;20071;-77
2021/09/18 08:29:48;;;;;;;17.38;12.63;;;21.90;99.90;;;;;;5041446;28;20099;-78
2021/09/18 08:32:15;;;;;;;18.38;13.82;;;22.90;99.90;;;;;;5042705;28;20045;-77
2021/09/18 08:34:43;;;;;;;18.15;13.48;;;23.60;99.90;;;;;;5040139;28;20222;-77
2021/09/18 08:37:10;;;;;;;17.00;13.95;;;22.40;99.90;;;;;;5040879;28;20130;-78
2021/09/18 08:39:38;;;;;;;20.38;15.15;;;23.00;99.90;;;;;;5041912;28;20076;-77
2021/09/18 08:42:06;;;;;;;15.77;13.35;;;22.70;99.90;;;;;;5042301;28;20045;-77
2021/09/18 08:44:35;;;;;;;19.35;13.88;;;23.40;99.90;;;;;;5040850;28;20109;-78
2021/09/18 08:47:02;;;;;;;17.00;14.00;;;23.90;99.90;;;;;;5038697;28;20099;-77
2021/09/18 08:49:30;;;;;;;16.02;14.15;;;24.70;99.90;;;;;;5043068;28;20129;-78
2021/09/18 08:52:00;;;;;;;17.42;13.25;;;25.10;99.90;;;;;;5040236;28;20072;-78
2021/09/18 08:54:27;;;;;;;17.92;15.77;;;25.30;99.90;;;;;;5040448;28;20533;-79
2021/09/18 08:56:54;;;;;;;18.73;16.38;;;25.00;99.90;;;;;;5039432;28;20272;-78
2021/09/18 08:59:21;;;;;;;19.95;15.25;;;24.90;99.90;;;;;;5034059;28;20068;-77
2021/09/18 09:02:11;;;;;;;20.92;17.23;;;25.50;99.90;;;;;;5034748;28;20052;-77
2021/09/18 09:04:39;;;;;;;22.55;16.17;;;25.70;99.90;;;;;;5043143;28;20051;-78
2021/09/18 09:07:09;;;;;;;20.63;16.42;;;25.30;99.90;;;;;;5044941;28;20076;-78
2021/09/18 09:09:56;;;;;;;18.77;16.38;;;25.50;99.90;;;;;;5045217;28;20048;-77
2021/09/18 09:12:28;;;;;;;16.63;14.55;;;25.20;99.90;;;;;;5041319;28;20106;-77
2021/09/18 09:14:56;;;;;;;18.48;15.35;;;26.20;99.90;;;;;;5042435;28;20083;-77
2021/09/18 09:17:25;;;;;;;19.67;15.75;;;27.20;99.90;;;;;;5038510;28;20051;-76
2021/09/18 09:19:52;;;;;;;21.42;16.52;;;27.30;99.90;;;;;;5038422;28;20603;-77
2021/09/18 09:22:42;;;;;;;20.58;16.33;;;25.30;99.90;;;;;;5032088;28;20059;-78
2021/09/18 09:25:28;;;;;;;18.85;15.88;;;26.20;99.90;;;;;;5031190;28;20041;-78
2021/09/18 09:27:56;;;;;;;21.52;16.92;;;26.80;99.90;;;;;;5032783;28;20118;-77
2021/09/18 09:30:28;;;;;;;17.73;15.63;;;27.80;99.90;;;;;;5032114;28;20080;-77
2021/09/18 09:32:55;;;;;;;18.80;15.10;;;26.10;99.90;;;;;;5033532;28;20082;-77
2021/09/18 09:35:22;;;;;;;16.33;13.68;;;24.90;99.90;;;;;;5031231;28;20100;-77
2021/09/18 09:37:54;;;;;;;18.85;14.70;;;24.40;99.90;;;;;;5040696;28;21631;-77
2021/09/18 09:40:35;;;;;;;19.20;14.70;;;23.90;99.90;;;;;;5043000;28;20040;-77
2021/09/18 09:43:03;;;;;;;18.55;14.43;;;23.00;99.90;;;;;;5037801;28;20063;-77
2021/09/18 09:45:31;;;;;;;20.05;15.10;;;22.60;99.90;;;;;;5038618;28;20093;-77
2021/09/18 09:48:07;;;;;;;16.50;13.50;;;21.90;99.90;;;;;;5039574;28;20429;-77
2021/09/18 09:50:35;;;;;;;17.23;13.77;;;21.20;99.90;;;;;;5043061;28;20044;-77
2021/09/18 09:53:04;;;;;;;17.27;13.38;;;21.50;99.90;;;;;;5041402;28;20588;-77
2021/09/18 09:55:36;;;;;;;16.98;12.95;;;23.50;99.90;;;;;;5041180;28;20063;-77
2021/09/18 09:58:06;;;;;;;17.08;13.13;;;23.90;99.90;;;;;;5041200;28;20057;-77
2021/09/18 10:00:39;;;;;;;14.40;11.38;;;23.00;99.90;;;;;;5046242;28;20460;-77
2021/09/18 10:03:06;;;;;;;14.20;9.70;;;24.20;99.90;;;;;;5037968;28;20137;-77
2021/09/18 10:05:34;;;;;;;14.50;10.07;;;25.30;99.90;;;;;;5032254;28;20084;-77
2021/09/18 10:08:01;;;;;;;13.75;11.25;;;25.50;99.90;;;;;;5035811;28;20052;-77
2021/09/18 10:10:30;;;;;;;11.68;8.63;;;25.20;99.90;;;;;;5039226;28;20165;-78
2021/09/18 10:12:58;;;;;;;10.10;8.05;;;27.10;99.90;;;;;;5037669;28;20045;-77
2021/09/18 10:15:26;;;;;;;11.73;7.78;;;27.40;99.90;;;;;;5037388;28;20052;-78
2021/09/18 10:17:55;;;;;;;12.35;8.70;;;28.00;99.90;;;;;;5038371;28;20510;-78
2021/09/18 10:23:18;;;;;;;12.30;7.97;;;26.10;99.90;;;;;;5000713;28;20036;-77
2021/09/18 10:25:50;;;;;;;10.32;7.82;;;24.70;99.90;;;;;;5039714;28;20048;-77
2021/09/18 10:28:19;;;;;;;9.45;6.75;;;24.00;99.90;;;;;;5043976;28;20040;-78
2021/09/18 10:30:49;;;;;;;10.30;6.20;;;25.80;99.90;;;;;;5046054;28;20083;-78
2021/09/18 10:33:34;;;;;;;12.20;6.30;;;27.20;99.90;;;;;;5043508;28;20044;-79
2021/09/18 10:36:05;;;;;;;8.27;5.93;;;28.70;99.90;;;;;;5042306;28;20052;-78
2021/09/18 10:38:34;;;;;;;7.93;5.63;;;28.20;99.90;;;;;;5043978;28;20098;-77
2021/09/18 10:41:07;;;;;;;6.78;5.13;;;28.10;99.90;;;;;;5043147;28;20985;-78
2021/09/18 10:43:37;;;;;;;7.85;5.05;;;27.50;99.90;;;;;;5045214;28;20048;-78
2021/09/18 10:46:05;;;;;;;10.05;4.80;;;27.40;99.90;;;;;;5042752;28;20087;-78
2021/09/18 10:48:49;;;;;;;8.30;5.00;;;27.30;99.90;;;;;;5047596;28;20101;-78
2021/09/18 10:51:36;;;;;;;11.45;5.70;;;25.60;99.90;;;;;;5048848;28;20137;-79
2021/09/18 10:54:04;;;;;;;;;;;24.50;99.90;;;;;;5047953;28;20446;-78
2021/09/18 10:57:00;;;;;;;5.47;3.95;;;26.90;99.90;;;;;;5043418;28;19924;-78
2021/09/18 10:59:55;;;;;;;5.60;3.55;;;28.50;99.90;;;;;;5044759;28;20041;-79
2021/09/18 11:02:44;;;;;;;7.38;3.15;;;30.40;99.90;;;;;;4994075;28;20083;-79
2021/09/18 11:05:27;;;;;;;7.82;3.80;;;30.20;99.90;;;;;;5044375;28;20052;-79
2021/09/18 11:07:55;;;;;;;5.82;3.60;;;29.70;99.90;;;;;;5043249;28;20048;-79
2021/09/18 11:11:00;;;;;;;6.55;3.72;;;26.80;99.90;;;;;;5045010;28;20125;-78
2021/09/18 11:13:34;;;;;;;5.75;3.33;;;26.20;99.90;;;;;;5035728;28;20040;-79
2021/09/18 11:16:06;;;;;;;4.57;3.08;;;26.00;99.90;;;;;;5040701;28;20052;-78
2021/09/18 11:18:36;;;;;;;6.38;3.35;;;28.50;99.90;;;;;;5048010;28;20045;-78
2021/09/18 11:21:10;;;;;;;7.10;3.88;;;30.80;99.90;;;;;;5048542;28;20493;-78
2021/09/18 11:23:40;;;;;;;5.57;3.45;;;27.80;99.90;;;;;;5052642;28;20105;-77
2021/09/18 11:26:31;;;;;;;5.93;3.53;;;25.80;99.90;;;;;;5048944;28;20110;-78
2021/09/18 11:29:28;;;;;;;7.22;4.22;;;24.40;99.90;;;;;;5044506;28;20128;-78
2021/09/18 11:32:14;;;;;;;7.17;3.73;;;24.00;99.90;;;;;;5044594;28;20091;-78
2021/09/18 11:34:44;;;;;;;6.40;3.58;;;24.10;99.90;;;;;;5041293;28;20055;-78
2021/09/18 11:37:20;;;;;;;8.15;4.70;;;23.90;99.90;;;;;;5037812;28;20145;-76
2021/09/18 11:39:51;;;;;;;5.53;3.55;;;26.00;99.90;;;;;;5047939;28;20481;-76
2021/09/18 11:42:25;;;;;;;7.13;3.50;;;26.70;99.90;;;;;;5046183;28;20096;-77
2021/09/18 11:44:58;;;;;;;7.65;3.70;;;24.90;99.90;;;;;;5045829;28;20493;-78
2021/09/18 11:47:28;;;;;;;6.15;3.50;;;23.90;99.90;;;;;;5042341;28;20095;-78
2021/09/18 11:49:55;;;;;;;5.32;2.92;;;24.90;99.90;;;;;;5043588;28;20052;-78
2021/09/18 11:52:36;;;;;;;7.82;3.85;;;27.80;99.90;;;;;;5032058;28;20205;-78
2021/09/18 11:55:06;;;;;;;6.57;3.40;;;30.80;99.90;;;;;;5039988;28;20077;-78
2021/09/18 11:57:33;;;;;;;3.95;2.60;;;31.10;99.90;;;;;;5045146;28;20044;-79
2021/09/18 12:00:15;;;;;;;5.30;3.08;;;31.60;99.90;;;;;;5041645;28;20044;-79
2021/09/18 12:02:42;;;;;;;5.13;2.70;;;27.80;99.90;;;;;;5041404;28;20128;-78
2021/09/18 12:05:16;;;;;;;7.22;2.88;;;25.90;99.90;;;;;;5039811;28;20133;-78
2021/09/18 12:07:49;;;;;;;4.00;2.65;;;24.70;99.90;;;;;;5040226;28;20137;-78
2021/09/18 12:10:17;;;;;;;3.85;2.20;;;24.00;99.90;;;;;;5044448;28;20052;-78
2021/09/18 12:12:49;;;;;;;7.22;2.85;;;23.60;99.90;;;;;;5048220;28;20049;-78
2021/09/18 12:15:17;;;;;;;5.75;2.80;;;23.30;99.90;;;;;;5042299;28;20040;-78
2021/09/18 12:17:44;;;;;;;5.38;2.85;;;22.80;99.90;;;;;;5041066;28;20558;-78
2021/09/18 12:20:12;;;;;;;5.15;2.58;;;23.00;99.90;;;;;;5043113;28;20581;-77
2021/09/18 12:22:40;;;;;;;4.38;2.28;;;23.40;99.90;;;;;;5046397;28;20088;-78
2021/09/18 12:25:07;;;;;;;5.60;2.35;;;25.80;99.90;;;;;;5046874;28;20481;-78
2021/09/18 12:27:36;;;;;;;3.38;2.30;;;27.30;99.90;;;;;;5045516;28;20129;-78
2021/09/18 12:30:07;;;;;;;5.70;2.70;;;27.80;99.90;;;;;;5047356;28;20136;-78
2021/09/18 12:32:36;;;;;;;3.92;2.22;;;26.10;99.90;;;;;;5047605;28;20072;-78
2021/09/18 12:35:07;;;;;;;5.03;2.35;;;25.10;99.90;;;;;;5049078;28;20072;-78
2021/09/18 12:37:36;;;;;;;4.57;2.40;;;24.50;99.90;;;;;;5048180;28;20489;-78
2021/09/18 12:40:16;;;;;;;6.18;2.38;;;23.70;99.90;;;;;;5047437;28;20048;-77
2021/09/18 12:42:43;;;;;;;5.65;2.80;;;23.30;99.90;;;;;;5047756;28;20052;-78